DLH715 EDDM-RJTT
Flight info
| Callsign | DLH715 |
|---|---|
| Flight time | N/A |
| Altitude | 35000 |
| Route | KIRDI4N KIRDI DCT MEDEL DCT BAGSI DCT DIVAL DCT STEIN DCT GITAS DCT TEGRI DCT UDROS UM859 KARDE UN644 FALAZ/N0487F370 UN644 ROLIN N644 ODILI DCT BARAD M747 SUBUT T916 BALUN/K0904F370 T916 NIGET/K0885F390 T916 PIGAL M610 RULAD/K0887S1190 A343 POSOT B215 FKG W188 LIKMI W270 DKO W69 HUR/K0889S1250 B339 LADIX W34 VAPGU W100 ORAVA W201 UNSEK A326 DONVO G597 AGAVO/N0480F410 Y644 EGOBA Y697 LANAT Y71 XAC |
| Aircraft | A359/H-SDE2E3GHIJ3J4J5LM1ORWXY/LB1D1 |
Departure
| Time | N/A |
|---|---|
| Airport | Munich Airport (EDDM) |
Arrival
| Time | 2026-02-18 14:15 |
|---|---|
| Airport | Tokyo Haneda International Airport (RJTT) |
| Time | Latitude | Longitude | Altitude | Speed | Heading |
|---|---|---|---|---|---|
| 2026-02-18 13:26 | 34.71559 | 138.78767 | 22991 ft | 508 kts | 86° |
| 2026-02-18 13:26 | 34.71560 | 138.83070 | 22698 ft | 506 kts | 86° |
| 2026-02-18 13:27 | 34.71555 | 138.87346 | 22428 ft | 504 kts | 87° |
| 2026-02-18 13:27 | 34.71539 | 138.91556 | 22148 ft | 503 kts | 87° |
| 2026-02-18 13:27 | 34.71513 | 138.95809 | 21862 ft | 502 kts | 88° |
| 2026-02-18 13:27 | 34.71479 | 139.00054 | 21585 ft | 500 kts | 88° |
| 2026-02-18 13:28 | 34.71454 | 139.04280 | 21321 ft | 499 kts | 88° |
| 2026-02-18 13:28 | 34.71436 | 139.08491 | 21054 ft | 497 kts | 88° |
| 2026-02-18 13:28 | 34.71417 | 139.12708 | 20817 ft | 497 kts | 88° |
| 2026-02-18 13:28 | 34.71395 | 139.16907 | 20578 ft | 497 kts | 88° |
| 2026-02-18 13:29 | 34.71344 | 139.25221 | 19741 ft | 487 kts | 88° |
| 2026-02-18 13:29 | 34.71317 | 139.29314 | 19181 ft | 483 kts | 88° |
| 2026-02-18 13:29 | 34.71288 | 139.33388 | 18549 ft | 480 kts | 88° |
| 2026-02-18 13:30 | 34.71261 | 139.37432 | 17930 ft | 476 kts | 89° |
| 2026-02-18 13:30 | 34.71548 | 139.41405 | 17339 ft | 468 kts | 73° |
| 2026-02-18 13:30 | 34.72681 | 139.45040 | 16728 ft | 454 kts | 57° |
| 2026-02-18 13:30 | 34.74202 | 139.48317 | 16180 ft | 447 kts | 53° |
| 2026-02-18 13:31 | 34.75782 | 139.51597 | 15594 ft | 443 kts | 53° |
| 2026-02-18 13:31 | 34.77304 | 139.54811 | 15085 ft | 439 kts | 54° |
| 2026-02-18 13:31 | 34.78785 | 139.57994 | 14926 ft | 422 kts | 54° |
| 2026-02-18 13:31 | 34.80191 | 139.61052 | 14804 ft | 399 kts | 54° |
| 2026-02-18 13:32 | 34.81472 | 139.63862 | 14641 ft | 371 kts | 53° |
| 2026-02-18 13:32 | 34.82691 | 139.66535 | 14491 ft | 352 kts | 53° |
| 2026-02-18 13:32 | 34.84014 | 139.68939 | 14320 ft | 327 kts | 36° |
| 2026-02-18 13:32 | 34.85782 | 139.70359 | 14192 ft | 289 kts | 10° |
| 2026-02-18 13:33 | 34.89384 | 139.71850 | 13936 ft | 266 kts | 4° |
| 2026-02-18 13:33 | 34.91121 | 139.72530 | 13780 ft | 259 kts | 4° |
| 2026-02-18 13:33 | 34.92832 | 139.73206 | 13548 ft | 256 kts | 4° |
| 2026-02-18 13:34 | 34.94511 | 139.73869 | 13318 ft | 252 kts | 4° |
| 2026-02-18 13:34 | 34.96181 | 139.74530 | 13111 ft | 252 kts | 5° |
| 2026-02-18 13:34 | 34.97835 | 139.75232 | 12896 ft | 259 kts | 10° |
| 2026-02-18 13:34 | 34.99419 | 139.76450 | 12852 ft | 285 kts | 28° |
| 2026-02-18 13:35 | 35.00931 | 139.78139 | 12860 ft | 299 kts | 34° |
| 2026-02-18 13:35 | 35.02413 | 139.79930 | 12858 ft | 301 kts | 35° |
| 2026-02-18 13:35 | 35.03901 | 139.81737 | 12859 ft | 301 kts | 34° |
| 2026-02-18 13:35 | 35.05385 | 139.83532 | 12857 ft | 301 kts | 34° |
| 2026-02-18 13:36 | 35.06857 | 139.85305 | 12844 ft | 301 kts | 35° |
| 2026-02-18 13:36 | 35.08316 | 139.87141 | 12852 ft | 305 kts | 41° |
| 2026-02-18 13:36 | 35.09348 | 139.89480 | 12843 ft | 322 kts | 70° |
| 2026-02-18 13:36 | 35.09398 | 139.92227 | 12847 ft | 330 kts | 103° |
| 2026-02-18 13:37 | 35.07165 | 139.96994 | 12871 ft | 326 kts | 130° |
| 2026-02-18 13:37 | 35.05851 | 139.99252 | 12865 ft | 326 kts | 129° |
| 2026-02-18 13:37 | 35.04558 | 140.01540 | 12870 ft | 326 kts | 128° |
| 2026-02-18 13:38 | 35.03290 | 140.03846 | 12876 ft | 327 kts | 127° |
| 2026-02-18 13:38 | 35.02314 | 140.06333 | 12874 ft | 331 kts | 108° |
| 2026-02-18 13:38 | 35.01751 | 140.09062 | 12873 ft | 332 kts | 102° |
| 2026-02-18 13:38 | 35.01268 | 140.11825 | 12847 ft | 332 kts | 102° |
| 2026-02-18 13:39 | 35.00789 | 140.14575 | 12847 ft | 332 kts | 102° |
| 2026-02-18 13:39 | 35.00302 | 140.17327 | 12844 ft | 331 kts | 102° |
| 2026-02-18 13:39 | 35.00025 | 140.20113 | 12860 ft | 330 kts | 87° |
| 2026-02-18 13:39 | 35.00182 | 140.22906 | 12860 ft | 330 kts | 81° |
| 2026-02-18 13:40 | 35.00423 | 140.25649 | 12859 ft | 330 kts | 80° |
| 2026-02-18 13:40 | 35.00672 | 140.28440 | 12859 ft | 330 kts | 80° |
| 2026-02-18 13:40 | 35.00912 | 140.31234 | 12859 ft | 330 kts | 81° |
| 2026-02-18 13:40 | 35.01299 | 140.33941 | 12845 ft | 325 kts | 66° |
| 2026-02-18 13:41 | 35.03173 | 140.38876 | 12855 ft | 319 kts | 56° |
| 2026-02-18 13:41 | 35.04177 | 140.41294 | 12855 ft | 320 kts | 56° |
| 2026-02-18 13:41 | 35.05181 | 140.43730 | 12860 ft | 320 kts | 57° |
| 2026-02-18 13:42 | 35.06237 | 140.46107 | 12834 ft | 314 kts | 48° |
| 2026-02-18 13:42 | 35.07732 | 140.47850 | 12481 ft | 291 kts | 18° |
| 2026-02-18 13:42 | 35.09573 | 140.48483 | 12085 ft | 265 kts | 352° |
| 2026-02-18 13:42 | 35.11320 | 140.48131 | 11633 ft | 248 kts | 330° |
| 2026-02-18 13:43 | 35.12736 | 140.47024 | 11153 ft | 239 kts | 310° |
| 2026-02-18 13:43 | 35.13713 | 140.45407 | 10683 ft | 236 kts | 297° |
| 2026-02-18 13:43 | 35.14673 | 140.43760 | 10258 ft | 241 kts | 308° |
| 2026-02-18 13:43 | 35.15932 | 140.42361 | 9778 ft | 249 kts | 315° |
| 2026-02-18 13:44 | 35.17293 | 140.41056 | 9396 ft | 247 kts | 318° |
| 2026-02-18 13:44 | 35.18650 | 140.39784 | 9047 ft | 244 kts | 318° |
| 2026-02-18 13:44 | 35.19984 | 140.38528 | 8695 ft | 241 kts | 318° |
| 2026-02-18 13:44 | 35.21293 | 140.37296 | 8332 ft | 239 kts | 318° |
| 2026-02-18 13:45 | 35.23903 | 140.34830 | 7773 ft | 236 kts | 318° |
| 2026-02-18 13:45 | 35.25200 | 140.33603 | 7432 ft | 233 kts | 318° |
| 2026-02-18 13:45 | 35.26476 | 140.32396 | 7102 ft | 231 kts | 319° |
| 2026-02-18 13:46 | 35.27745 | 140.31195 | 6764 ft | 229 kts | 319° |
| 2026-02-18 13:46 | 35.28997 | 140.30011 | 6453 ft | 226 kts | 319° |
| 2026-02-18 13:46 | 35.30215 | 140.28857 | 6155 ft | 222 kts | 319° |
| 2026-02-18 13:46 | 35.31444 | 140.27696 | 5834 ft | 218 kts | 319° |
| 2026-02-18 13:47 | 35.32622 | 140.26579 | 5509 ft | 216 kts | 320° |
| 2026-02-18 13:47 | 35.33808 | 140.25453 | 5165 ft | 214 kts | 320° |
| 2026-02-18 13:47 | 35.34979 | 140.24342 | 4834 ft | 212 kts | 320° |
| 2026-02-18 13:47 | 35.36140 | 140.23241 | 4526 ft | 209 kts | 320° |
| 2026-02-18 13:48 | 35.37369 | 140.22299 | 4200 ft | 210 kts | 332° |
| 2026-02-18 13:48 | 35.38773 | 140.21867 | 4016 ft | 211 kts | 346° |
| 2026-02-18 13:48 | 35.40242 | 140.21693 | 4006 ft | 213 kts | 349° |
| 2026-02-18 13:48 | 35.41723 | 140.21554 | 4009 ft | 212 kts | 349° |
| 2026-02-18 13:49 | 35.44674 | 140.21269 | 4003 ft | 211 kts | 349° |
| 2026-02-18 13:49 | 35.46123 | 140.21124 | 4007 ft | 212 kts | 349° |
| 2026-02-18 13:49 | 35.47592 | 140.20976 | 4008 ft | 212 kts | 349° |
| 2026-02-18 13:50 | 35.49065 | 140.20825 | 4005 ft | 212 kts | 349° |
| 2026-02-18 13:50 | 35.50541 | 140.20673 | 4004 ft | 213 kts | 349° |
| 2026-02-18 13:50 | 35.52018 | 140.20521 | 4004 ft | 213 kts | 349° |
| 2026-02-18 13:50 | 35.53450 | 140.20171 | 4000 ft | 208 kts | 336° |
| 2026-02-18 13:51 | 35.54734 | 140.19452 | 3998 ft | 206 kts | 329° |
| 2026-02-18 13:51 | 35.55990 | 140.18635 | 4016 ft | 207 kts | 329° |
| 2026-02-18 13:51 | 35.57259 | 140.17797 | 4004 ft | 207 kts | 329° |
| 2026-02-18 13:51 | 35.58532 | 140.16960 | 3999 ft | 207 kts | 329° |
| 2026-02-18 13:52 | 35.59806 | 140.16128 | 4020 ft | 207 kts | 329° |
| 2026-02-18 13:52 | 35.61080 | 140.15299 | 4003 ft | 207 kts | 329° |
| 2026-02-18 13:52 | 35.62357 | 140.14468 | 4027 ft | 207 kts | 329° |
| 2026-02-18 13:52 | 35.63630 | 140.13645 | 4011 ft | 205 kts | 329° |
| 2026-02-18 13:53 | 35.66156 | 140.12014 | 4009 ft | 205 kts | 329° |
| 2026-02-18 13:53 | 35.68659 | 140.10392 | 4016 ft | 204 kts | 329° |
| 2026-02-18 13:54 | 35.69923 | 140.09571 | 4011 ft | 204 kts | 329° |
| 2026-02-18 13:54 | 35.71184 | 140.08752 | 4010 ft | 205 kts | 329° |
| 2026-02-18 13:54 | 35.72415 | 140.07940 | 4005 ft | 197 kts | 327° |
| 2026-02-18 13:55 | 35.73207 | 140.05334 | 4034 ft | 176 kts | 254° |
| 2026-02-18 13:55 | 35.72476 | 140.04088 | 4014 ft | 181 kts | 239° |
| 2026-02-18 13:55 | 35.71591 | 140.02973 | 4018 ft | 185 kts | 236° |
| 2026-02-18 13:55 | 35.70670 | 140.01858 | 4012 ft | 186 kts | 235° |
| 2026-02-18 13:56 | 35.69738 | 140.00750 | 4013 ft | 186 kts | 235° |
| 2026-02-18 13:56 | 35.68805 | 139.99640 | 4011 ft | 186 kts | 235° |
| 2026-02-18 13:56 | 35.67879 | 139.98534 | 3961 ft | 185 kts | 235° |
| 2026-02-18 13:56 | 35.66967 | 139.97442 | 3729 ft | 185 kts | 235° |
| 2026-02-18 13:57 | 35.65099 | 139.95224 | 3185 ft | 188 kts | 234° |
| 2026-02-18 13:57 | 35.64155 | 139.94103 | 2900 ft | 188 kts | 235° |
| 2026-02-18 13:57 | 35.63528 | 139.93358 | 2729 ft | 188 kts | 235° |
| 2026-02-18 13:58 | 35.62584 | 139.92238 | 2464 ft | 189 kts | 235° |
| 2026-02-18 13:58 | 35.61638 | 139.91112 | 2198 ft | 188 kts | 235° |
| 2026-02-18 13:58 | 35.60706 | 139.90006 | 1931 ft | 189 kts | 234° |
| 2026-02-18 13:58 | 35.59755 | 139.88879 | 1675 ft | 189 kts | 234° |
| 2026-02-18 13:59 | 35.58814 | 139.87762 | 1402 ft | 187 kts | 234° |
| 2026-02-18 13:59 | 35.57910 | 139.86693 | 1134 ft | 172 kts | 234° |
| 2026-02-18 13:59 | 35.57078 | 139.85704 | 891 ft | 160 kts | 235° |
| 2026-02-18 13:59 | 35.56306 | 139.84789 | 670 ft | 151 kts | 234° |
| 2026-02-18 14:00 | 35.55579 | 139.83926 | 489 ft | 140 kts | 234° |
| 2026-02-18 14:00 | 35.54885 | 139.83112 | 305 ft | 137 kts | 234° |
| 2026-02-18 14:00 | 35.54167 | 139.82334 | 143 ft | 139 kts | 231° |
| 2026-02-18 14:00 | 35.53452 | 139.81582 | 105 ft | 134 kts | 244° |
| 2026-02-18 14:01 | 35.52054 | 139.79919 | 1299 ft | 151 kts | 236° |
| 2026-02-18 14:01 | 35.51163 | 139.79214 | 2156 ft | 164 kts | 221° |
| 2026-02-18 14:01 | 35.49961 | 139.78765 | 2449 ft | 207 kts | 186° |
| 2026-02-18 14:02 | 35.48570 | 139.79446 | 2967 ft | 221 kts | 144° |
| 2026-02-18 14:02 | 35.47313 | 139.80512 | 3607 ft | 221 kts | 149° |
| 2026-02-18 14:02 | 35.45931 | 139.81352 | 3949 ft | 222 kts | 160° |
| 2026-02-18 14:02 | 35.44481 | 139.81934 | 4009 ft | 221 kts | 168° |
| 2026-02-18 14:03 | 35.42955 | 139.82361 | 3978 ft | 236 kts | 173° |
| 2026-02-18 14:03 | 35.41184 | 139.82729 | 3971 ft | 275 kts | 175° |
| 2026-02-18 14:03 | 35.39249 | 139.83137 | 3982 ft | 288 kts | 168° |
| 2026-02-18 14:03 | 35.37445 | 139.84178 | 3998 ft | 280 kts | 142° |
| 2026-02-18 14:04 | 35.36165 | 139.85852 | 4026 ft | 275 kts | 127° |
| 2026-02-18 14:04 | 35.34978 | 139.87789 | 3994 ft | 288 kts | 124° |
| 2026-02-18 14:04 | 35.33797 | 139.89793 | 4015 ft | 290 kts | 124° |
| 2026-02-18 14:04 | 35.32620 | 139.91803 | 4005 ft | 289 kts | 124° |
| 2026-02-18 14:05 | 35.30291 | 139.95786 | 4017 ft | 289 kts | 124° |
| 2026-02-18 14:05 | 35.29121 | 139.97795 | 4010 ft | 289 kts | 123° |
| 2026-02-18 14:05 | 35.28235 | 139.99973 | 4011 ft | 288 kts | 101° |
| 2026-02-18 14:06 | 35.28223 | 140.02348 | 4017 ft | 275 kts | 69° |
| 2026-02-18 14:06 | 35.29083 | 140.04347 | 4015 ft | 260 kts | 41° |
| 2026-02-18 14:06 | 35.30498 | 140.05605 | 4016 ft | 246 kts | 16° |
| 2026-02-18 14:06 | 35.32129 | 140.06003 | 4011 ft | 236 kts | 354° |
| 2026-02-18 14:07 | 35.33698 | 140.05582 | 4018 ft | 229 kts | 333° |
| 2026-02-18 14:07 | 35.34987 | 140.04465 | 4013 ft | 228 kts | 314° |
| 2026-02-18 14:07 | 35.35825 | 140.02823 | 4013 ft | 231 kts | 294° |
| 2026-02-18 14:07 | 35.36183 | 140.00891 | 4012 ft | 234 kts | 282° |
| 2026-02-18 14:08 | 35.36380 | 139.98932 | 4011 ft | 235 kts | 281° |
| 2026-02-18 14:08 | 35.36566 | 139.96960 | 4013 ft | 227 kts | 282° |
| 2026-02-18 14:08 | 35.36751 | 139.95107 | 4017 ft | 211 kts | 282° |
| 2026-02-18 14:08 | 35.36979 | 139.93408 | 4017 ft | 191 kts | 293° |
| 2026-02-18 14:09 | 35.38624 | 139.91388 | 3864 ft | 155 kts | 327° |
| 2026-02-18 14:09 | 35.39544 | 139.90712 | 3596 ft | 154 kts | 327° |
| 2026-02-18 14:09 | 35.40465 | 139.90053 | 3302 ft | 155 kts | 329° |
| 2026-02-18 14:10 | 35.41402 | 139.89397 | 3028 ft | 155 kts | 329° |
| 2026-02-18 14:10 | 35.42328 | 139.88742 | 2820 ft | 153 kts | 329° |
| 2026-02-18 14:10 | 35.43248 | 139.88090 | 2583 ft | 152 kts | 329° |
| 2026-02-18 14:10 | 35.44160 | 139.87446 | 2389 ft | 151 kts | 329° |
| 2026-02-18 14:11 | 35.45069 | 139.86805 | 2173 ft | 150 kts | 330° |
| 2026-02-18 14:11 | 35.45972 | 139.86166 | 1942 ft | 149 kts | 330° |
| 2026-02-18 14:11 | 35.46824 | 139.85565 | 1756 ft | 132 kts | 330° |
| 2026-02-18 14:11 | 35.47569 | 139.85039 | 1586 ft | 115 kts | 330° |
| 2026-02-18 14:12 | 35.48215 | 139.84583 | 1440 ft | 102 kts | 331° |
| 2026-02-18 14:12 | 35.48822 | 139.84153 | 1325 ft | 100 kts | 331° |
| 2026-02-18 14:12 | 35.49436 | 139.83719 | 1180 ft | 102 kts | 332° |
| 2026-02-18 14:12 | 35.50059 | 139.83279 | 1034 ft | 104 kts | 331° |
| 2026-02-18 14:13 | 35.51325 | 139.82381 | 735 ft | 107 kts | 330° |
| 2026-02-18 14:13 | 35.51974 | 139.81922 | 592 ft | 108 kts | 330° |
| 2026-02-18 14:13 | 35.52626 | 139.81463 | 428 ft | 108 kts | 330° |
| 2026-02-18 14:14 | 35.53275 | 139.81010 | 287 ft | 106 kts | 331° |
| 2026-02-18 14:14 | 35.53924 | 139.80549 | 143 ft | 110 kts | 330° |
| 2026-02-18 14:14 | 35.54575 | 139.80076 | 63 ft | 105 kts | 331° |
| 2026-02-18 14:14 | 35.55157 | 139.79657 | 35 ft | 90 kts | 332° |
| 2026-02-18 14:15 | 35.55634 | 139.79331 | 30 ft | 65 kts | 331° |
| 2026-02-18 14:15 | 35.56095 | 139.78940 | 29 ft | 34 kts | 308° |
| 2026-02-18 14:15 | 35.56135 | 139.78809 | 29 ft | 10 kts | 258° |
| 2026-02-18 14:16 | 35.56108 | 139.78731 | 29 ft | 0 kts | 244° |
| 2026-02-18 14:16 | 35.56106 | 139.78725 | 29 ft | 4 kts | 244° |
| 2026-02-18 14:16 | 35.56054 | 139.78679 | 30 ft | 14 kts | 187° |
| 2026-02-18 14:17 | 35.55789 | 139.78837 | 30 ft | 12 kts | 146° |
| 2026-02-18 14:17 | 35.55706 | 139.78846 | 30 ft | 10 kts | 222° |
| 2026-02-18 14:17 | 35.55652 | 139.78835 | 30 ft | 7 kts | 165° |
| 2026-02-18 14:18 | 35.55629 | 139.78846 | 30 ft | 0 kts | 153° |